createdAt,value
2022-09-03T00:00:55.791Z,77.53
2022-09-03T00:03:53.089Z,76.45
2022-09-03T00:06:38.296Z,76.72
2022-09-03T00:09:28.631Z,77.57
2022-09-03T00:12:12.988Z,77.12
2022-09-03T00:14:46.461Z,78.11
2022-09-03T00:17:40.241Z,78.39
2022-09-03T00:20:18.252Z,78.07
2022-09-03T00:22:49.533Z,77.70
2022-09-03T00:25:36.639Z,76.42
2022-09-03T00:28:11.088Z,77.86
2022-09-03T00:30:37.925Z,77.54
2022-09-03T00:33:11.330Z,77.54
2022-09-03T00:35:46.939Z,79.39
2022-09-03T00:38:14.184Z,77.74
2022-09-03T00:41:02.657Z,77.67
2022-09-03T00:43:47.690Z,77.69
2022-09-03T00:46:32.741Z,78.00
2022-09-03T00:49:36.879Z,76.52
2022-09-03T00:52:13.356Z,77.75
2022-09-03T00:55:01.043Z,79.26
2022-09-03T00:57:52.084Z,77.78
2022-09-03T01:00:20.836Z,78.24
2022-09-03T01:03:07.229Z,78.54
2022-09-03T01:05:40.147Z,78.31
2022-09-03T01:08:31.962Z,78.82
2022-09-03T01:11:20.311Z,78.81
2022-09-03T01:14:20.799Z,80.95
2022-09-03T01:16:47.374Z,79.75
2022-09-03T01:19:38.804Z,79.02
2022-09-03T01:22:30.349Z,81.08
2022-09-03T01:25:30.764Z,81.69
2022-09-03T01:28:42.105Z,82.25
2022-09-03T01:31:34.890Z,81.55
2022-09-03T01:34:23.304Z,79.29
2022-09-03T01:37:15.560Z,79.85
2022-09-03T01:40:10.134Z,79.99
2022-09-03T01:42:50.875Z,78.70
2022-09-03T01:45:51.148Z,80.35
2022-09-03T01:48:36.968Z,81.66
2022-09-03T01:51:22.506Z,82.59
2022-09-03T01:54:20.784Z,83.01
2022-09-03T01:57:26.414Z,82.34
2022-09-03T02:00:11.829Z,83.40
2022-09-03T02:02:39.453Z,84.16
2022-09-03T02:05:12.924Z,84.15
2022-09-03T02:07:48.744Z,83.27
2022-09-03T02:10:19.485Z,83.42
2022-09-03T02:12:55.787Z,85.01
2022-09-03T02:15:24.606Z,83.50
2022-09-03T02:17:56.220Z,82.16
2022-09-03T02:20:27.223Z,81.92
2022-09-03T02:22:54.217Z,83.99
2022-09-03T02:25:25.640Z,84.00
2022-09-03T02:27:53.547Z,84.28
2022-09-03T02:30:20.182Z,83.52
2022-09-03T02:32:47.036Z,84.64
2022-09-03T02:35:13.897Z,84.07
2022-09-03T02:37:40.550Z,84.93
2022-09-03T02:40:07.815Z,84.06
2022-09-03T02:42:34.530Z,82.73
2022-09-03T02:45:09.587Z,82.32
2022-09-03T02:47:39.522Z,81.27
2022-09-03T02:50:06.773Z,81.58
2022-09-03T02:52:33.383Z,82.28
2022-09-03T02:55:00.021Z,83.47
2022-09-03T02:57:27.373Z,85.19
2022-09-03T02:59:55.267Z,85.94
2022-09-03T03:02:21.901Z,84.61
2022-09-03T03:04:48.600Z,84.68
2022-09-03T03:07:15.258Z,84.60
2022-09-03T03:09:41.947Z,83.30
2022-09-03T03:12:08.657Z,84.27
2022-09-03T03:14:35.373Z,85.43
2022-09-03T03:17:02.060Z,86.33
2022-09-03T03:19:28.829Z,86.20
2022-09-03T03:21:56.200Z,83.77
2022-09-03T03:24:22.867Z,84.34
2022-09-03T03:26:49.557Z,85.43
2022-09-03T03:29:17.304Z,83.97
2022-09-03T03:31:44.056Z,83.97
2022-09-03T03:34:10.688Z,83.21
2022-09-03T03:36:37.491Z,82.24
2022-09-03T03:39:05.949Z,82.85
2022-09-03T03:41:35.402Z,82.82
2022-09-03T03:44:04.896Z,81.61
2022-09-03T03:46:37.993Z,82.72
2022-09-03T03:49:05.955Z,83.04
2022-09-03T03:51:33.718Z,83.34
2022-09-03T03:54:04.835Z,83.90
2022-09-03T03:56:31.809Z,82.63
2022-09-03T03:58:59.646Z,83.07
2022-09-03T04:01:27.926Z,82.68
2022-09-03T04:03:58.829Z,81.78
2022-09-03T04:06:25.548Z,83.25
2022-09-03T04:08:52.191Z,83.14
2022-09-03T04:11:21.438Z,83.07
2022-09-03T04:13:49.459Z,83.40
2022-09-03T04:16:27.388Z,82.42
2022-09-03T04:18:55.950Z,82.40
2022-09-03T04:21:28.450Z,83.95
2022-09-03T04:23:56.746Z,83.80
2022-09-03T04:26:33.828Z,84.37
2022-09-03T04:29:03.637Z,84.91
2022-09-03T04:31:30.912Z,85.37
2022-09-03T04:33:58.616Z,84.01
2022-09-03T04:36:27.477Z,83.41
2022-09-03T04:38:55.636Z,82.98
2022-09-03T04:41:25.334Z,84.10
2022-09-03T04:43:53.790Z,85.02
2022-09-03T04:46:22.095Z,85.48
2022-09-03T04:48:51.003Z,86.11
2022-09-03T04:51:20.575Z,83.22
2022-09-03T04:53:52.687Z,82.62
2022-09-03T04:56:23.005Z,84.36
2022-09-03T04:58:55.216Z,85.92
2022-09-03T05:01:23.973Z,85.97
2022-09-03T05:03:50.762Z,86.70
2022-09-03T05:06:17.391Z,84.64
2022-09-03T05:08:51.916Z,85.71
2022-09-03T05:11:19.605Z,87.32
2022-09-03T05:13:54.754Z,88.59
2022-09-03T05:16:23.202Z,90.10
2022-09-03T05:18:53.609Z,89.81
2022-09-03T05:21:21.175Z,90.06
2022-09-03T05:23:50.018Z,89.60
2022-09-03T05:26:20.797Z,90.29
2022-09-03T05:28:48.216Z,90.35
2022-09-03T05:31:17.770Z,92.58
2022-09-03T05:33:47.070Z,94.76
2022-09-03T05:36:19.151Z,96.56
2022-09-03T05:38:46.601Z,98.15
2022-09-03T05:41:14.328Z,99.16
2022-09-03T05:43:41.002Z,99.90
2022-09-03T05:46:10.284Z,100.00
2022-09-03T05:48:39.392Z,100.00
2022-09-03T05:51:07.428Z,99.07
2022-09-03T05:53:36.537Z,98.43
2022-09-03T05:56:09.558Z,98.49
2022-09-03T05:58:42.040Z,97.34
2022-09-03T06:01:13.319Z,98.34
2022-09-03T06:03:40.766Z,98.70
2022-09-03T06:06:08.185Z,99.58
2022-09-03T06:08:36.262Z,99.88
2022-09-03T06:11:02.923Z,98.48
2022-09-03T06:13:30.512Z,96.55
2022-09-03T06:16:02.859Z,97.64
2022-09-03T06:18:30.573Z,98.89
2022-09-03T06:21:03.034Z,97.37
2022-09-03T06:23:30.997Z,92.06
2022-09-03T06:26:05.034Z,92.61
2022-09-03T06:28:33.412Z,92.20
2022-09-03T06:31:00.812Z,89.98
2022-09-03T06:33:27.523Z,86.74
2022-09-03T06:35:55.394Z,88.86
2022-09-03T06:38:22.109Z,85.28
2022-09-03T06:40:53.506Z,83.47
2022-09-03T06:43:20.283Z,84.64
2022-09-03T06:45:57.586Z,83.67
2022-09-03T06:48:25.063Z,81.90
2022-09-03T06:51:00.241Z,80.63
2022-09-03T06:53:31.999Z,82.28
2022-09-03T06:56:01.075Z,76.70
2022-09-03T06:58:33.006Z,77.46
2022-09-03T07:01:04.618Z,76.57
2022-09-03T07:03:31.374Z,76.47
2022-09-03T07:06:06.619Z,75.47
2022-09-03T07:08:34.247Z,75.36
2022-09-03T07:11:02.267Z,75.57
2022-09-03T07:13:28.886Z,75.78
2022-09-03T07:16:01.128Z,73.17
2022-09-03T07:18:27.841Z,74.54
2022-09-03T07:21:01.492Z,76.17
2022-09-03T07:23:29.288Z,70.55
2022-09-03T07:25:58.429Z,72.11
2022-09-03T07:28:26.468Z,71.76
2022-09-03T07:30:54.904Z,72.29
2022-09-03T07:33:21.534Z,73.87
2022-09-03T07:35:48.176Z,71.67
2022-09-03T07:38:18.836Z,70.19
2022-09-03T07:40:46.273Z,71.09
2022-09-03T07:43:13.602Z,70.13
2022-09-03T07:45:40.404Z,69.39
2022-09-03T07:48:07.039Z,71.14
2022-09-03T07:50:33.671Z,68.76
2022-09-03T07:53:00.304Z,71.22
2022-09-03T07:55:27.001Z,66.78
2022-09-03T07:57:57.007Z,69.39
2022-09-03T08:00:23.713Z,68.02
2022-09-03T08:02:51.938Z,64.99
2022-09-03T08:05:22.813Z,65.47
2022-09-03T08:07:49.412Z,65.63
2022-09-03T08:10:16.427Z,67.15
2022-09-03T08:12:43.091Z,65.73
2022-09-03T08:15:09.863Z,65.52
2022-09-03T08:17:36.639Z,65.51
2022-09-03T08:20:04.183Z,64.25
2022-09-03T08:22:30.817Z,63.11
2022-09-03T08:24:57.464Z,62.47
2022-09-03T08:27:24.089Z,63.51
2022-09-03T08:29:50.771Z,64.48
2022-09-03T08:32:17.416Z,61.19
2022-09-03T08:34:44.130Z,60.59
2022-09-03T08:37:10.742Z,61.46
2022-09-03T08:39:37.430Z,62.22
2022-09-03T08:42:29.045Z,62.89
2022-09-03T08:45:05.512Z,60.99
2022-09-03T08:47:52.577Z,60.78
2022-09-03T08:50:29.860Z,58.75
2022-09-03T08:53:11.452Z,56.84
2022-09-03T08:55:47.716Z,58.51
2022-09-03T08:58:18.349Z,58.90
2022-09-03T09:01:06.109Z,56.87
2022-09-03T09:03:51.246Z,58.76
2022-09-03T09:06:24.057Z,58.47
2022-09-03T09:08:53.403Z,57.38
2022-09-03T09:11:47.185Z,56.35
2022-09-03T09:14:30.719Z,57.88
2022-09-03T09:17:19.263Z,59.51
2022-09-03T09:19:58.734Z,58.38
2022-09-03T09:22:48.130Z,57.19
2022-09-03T09:25:23.002Z,54.86
2022-09-03T09:28:02.607Z,57.14
2022-09-03T09:30:31.317Z,57.38
2022-09-03T09:32:57.919Z,55.98
2022-09-03T09:35:24.621Z,57.86
2022-09-03T09:37:54.266Z,55.18
2022-09-03T09:40:33.056Z,55.88
2022-09-03T09:43:11.656Z,54.58
2022-09-03T09:45:40.815Z,55.49
2022-09-03T09:48:22.876Z,55.42
2022-09-03T09:50:49.705Z,53.54
2022-09-03T09:53:18.928Z,50.14
2022-09-03T09:55:56.188Z,52.05
2022-09-03T09:58:25.937Z,50.48
2022-09-03T10:01:04.580Z,51.00
2022-09-03T10:03:34.949Z,54.71
2022-09-03T10:06:05.676Z,53.05
2022-09-03T10:08:32.331Z,51.99
2022-09-03T10:10:59.093Z,49.83
2022-09-03T10:13:34.189Z,45.90
2022-09-03T10:16:33.386Z,51.14
2022-09-03T10:19:18.670Z,51.20
2022-09-03T10:22:10.581Z,50.01
2022-09-03T10:25:09.727Z,52.50
2022-09-03T10:27:37.199Z,52.07
2022-09-03T10:30:07.976Z,48.49
2022-09-03T10:33:05.637Z,48.70
2022-09-03T10:35:40.340Z,51.75
2022-09-03T10:38:33.246Z,50.54
2022-09-03T10:41:24.411Z,47.56
2022-09-03T10:44:19.866Z,47.72
2022-09-03T10:47:10.288Z,49.92
2022-09-03T10:49:40.064Z,47.65
2022-09-03T10:52:14.935Z,47.99
2022-09-03T10:54:53.705Z,45.96
2022-09-03T10:57:26.289Z,46.50
2022-09-03T11:00:14.730Z,47.07
2022-09-03T11:03:00.263Z,49.22
2022-09-03T11:05:34.252Z,46.78
2022-09-03T11:08:26.116Z,49.20
2022-09-03T11:11:08.084Z,43.25
2022-09-03T11:13:53.806Z,43.99
2022-09-03T11:16:28.931Z,43.51
2022-09-03T11:19:07.384Z,45.29
2022-09-03T11:21:37.961Z,44.72
2022-09-03T11:24:18.667Z,43.53
2022-09-03T11:26:57.933Z,45.09
2022-09-03T11:29:39.834Z,44.32
2022-09-03T11:32:24.513Z,44.33
2022-09-03T11:34:53.938Z,43.59
2022-09-03T11:37:27.762Z,45.13
2022-09-03T11:40:03.538Z,44.74
2022-09-03T11:42:37.260Z,44.08
2022-09-03T11:45:21.100Z,43.18
2022-09-03T11:47:48.677Z,42.16
2022-09-03T11:50:28.681Z,39.87
2022-09-03T11:53:10.150Z,43.16
2022-09-03T11:56:06.281Z,39.47
2022-09-03T11:58:36.823Z,40.54
2022-09-03T12:01:09.811Z,41.29
2022-09-03T12:03:47.781Z,40.66
2022-09-03T12:06:23.144Z,41.08
2022-09-03T12:09:17.907Z,39.69
2022-09-03T12:12:18.518Z,38.74
2022-09-03T12:15:22.044Z,38.34
2022-09-03T12:17:56.126Z,37.89
2022-09-03T12:20:28.247Z,39.56
2022-09-03T12:25:26.517Z,39.81
2022-09-03T12:27:53.342Z,40.40
2022-09-03T12:30:23.820Z,38.88
2022-09-03T12:32:51.088Z,38.78
2022-09-03T12:38:18.256Z,40.31
2022-09-03T12:43:40.808Z,38.40
2022-09-03T12:46:14.799Z,37.65
2022-09-03T12:51:55.654Z,39.28
2022-09-03T12:54:23.866Z,38.04
2022-09-03T12:56:57.624Z,39.38
2022-09-03T12:59:27.958Z,40.27
2022-09-03T13:02:03.310Z,37.70
2022-09-03T13:04:34.600Z,39.12
2022-09-03T13:07:24.255Z,39.96
2022-09-03T13:09:51.411Z,38.70
2022-09-03T13:12:24.308Z,37.90
2022-09-03T13:14:52.658Z,37.66
2022-09-03T13:17:51.930Z,36.35
2022-09-03T13:20:40.448Z,37.45
2022-09-03T13:23:48.148Z,38.51
2022-09-03T13:26:28.659Z,38.37
2022-09-03T13:29:10.389Z,38.99
2022-09-03T13:31:44.354Z,39.81
2022-09-03T13:34:40.685Z,39.57
2022-09-03T13:37:24.821Z,39.31
2022-09-03T13:40:13.776Z,38.98
2022-09-03T13:42:46.054Z,38.52
2022-09-03T13:45:26.194Z,39.67
2022-09-03T13:47:57.463Z,36.62
2022-09-03T13:50:25.149Z,39.74
2022-09-03T13:53:03.761Z,39.70
2022-09-03T13:55:53.599Z,38.92
2022-09-03T13:58:20.176Z,37.75
2022-09-03T14:01:22.574Z,38.70
2022-09-03T14:04:01.124Z,39.89
2022-09-03T14:06:36.831Z,37.65
2022-09-03T14:09:06.383Z,37.73
2022-09-03T14:11:47.181Z,38.46
2022-09-03T14:14:16.764Z,37.73
2022-09-03T14:17:00.254Z,38.06
2022-09-03T14:19:47.138Z,40.54
2022-09-03T14:22:58.612Z,38.60
2022-09-03T14:25:26.976Z,37.12
2022-09-03T14:27:56.180Z,37.79
2022-09-03T14:30:41.419Z,36.56
2022-09-03T14:33:26.486Z,35.74
2022-09-03T14:35:56.093Z,36.76
2022-09-03T14:38:40.996Z,37.72
2022-09-03T14:41:35.364Z,38.22
2022-09-03T14:44:05.146Z,37.76
2022-09-03T14:46:49.625Z,37.44
2022-09-03T14:49:19.218Z,37.41
2022-09-03T14:51:59.281Z,38.33
2022-09-03T14:54:50.934Z,38.17
2022-09-03T14:57:17.524Z,37.10
2022-09-03T14:59:58.930Z,37.67
2022-09-03T15:02:34.436Z,37.93
2022-09-03T15:05:12.328Z,38.20
2022-09-03T15:07:43.189Z,37.71
2022-09-03T15:10:21.432Z,37.37
2022-09-03T15:13:10.796Z,35.47
2022-09-03T15:15:40.559Z,36.16
2022-09-03T15:18:27.159Z,36.19
2022-09-03T15:21:06.798Z,35.45
2022-09-03T15:24:04.497Z,33.97
2022-09-03T15:26:57.059Z,36.17
2022-09-03T15:29:23.629Z,36.49
2022-09-03T15:31:50.278Z,37.55
2022-09-03T15:34:22.732Z,35.03
2022-09-03T15:36:52.114Z,36.86
2022-09-03T15:39:28.167Z,36.17
2022-09-03T15:42:08.103Z,38.19
2022-09-03T15:44:48.882Z,38.27
2022-09-03T15:47:50.798Z,40.84
2022-09-03T15:50:32.775Z,39.61
2022-09-03T15:53:36.710Z,38.28
2022-09-03T15:56:11.670Z,38.93
2022-09-03T15:59:17.569Z,36.58
2022-09-03T16:01:52.579Z,37.62
2022-09-03T16:04:56.777Z,36.32
2022-09-03T16:07:38.468Z,36.66
2022-09-03T16:10:26.337Z,37.97
2022-09-03T16:13:20.602Z,36.92
2022-09-03T16:15:57.986Z,38.83
2022-09-03T16:18:35.647Z,37.36
2022-09-03T16:21:11.368Z,38.07
2022-09-03T16:23:55.628Z,37.43
2022-09-03T16:26:32.266Z,36.29
2022-09-03T16:29:12.498Z,36.82
2022-09-03T16:32:18.068Z,37.40
2022-09-03T16:34:56.766Z,38.62
2022-09-03T16:37:58.510Z,37.93
2022-09-03T16:40:43.561Z,39.81
2022-09-03T16:43:47.023Z,39.64
2022-09-03T16:46:24.455Z,38.18
2022-09-03T16:49:19.009Z,40.24
2022-09-03T16:52:38.870Z,39.11
2022-09-03T16:55:19.465Z,38.74
2022-09-03T16:57:58.177Z,41.04
2022-09-03T17:00:39.957Z,43.01
2022-09-03T17:03:09.487Z,41.10
2022-09-03T17:06:03.422Z,40.42
2022-09-03T17:08:35.827Z,43.07
2022-09-03T17:11:37.539Z,44.30
2022-09-03T17:14:23.647Z,44.51
2022-09-03T17:16:50.271Z,45.80
2022-09-03T17:19:32.642Z,46.19
2022-09-03T17:22:30.007Z,46.21
2022-09-03T17:24:59.081Z,46.78
2022-09-03T17:27:31.693Z,46.26
2022-09-03T17:30:11.257Z,47.64
2022-09-03T17:32:53.636Z,47.68
2022-09-03T17:36:11.460Z,48.26
2022-09-03T17:38:56.586Z,48.70
2022-09-03T17:41:27.029Z,49.32
2022-09-03T17:43:56.886Z,49.38
2022-09-03T17:46:45.361Z,49.98
2022-09-03T17:49:25.826Z,50.45
2022-09-03T17:52:06.711Z,50.68
2022-09-03T17:54:51.014Z,49.57
2022-09-03T17:57:18.884Z,50.22
2022-09-03T17:59:47.652Z,51.45
2022-09-03T18:02:14.238Z,51.91
2022-09-03T18:04:59.830Z,50.98
2022-09-03T18:08:04.373Z,50.77
2022-09-03T18:10:37.227Z,51.02
2022-09-03T18:13:23.677Z,51.68
2022-09-03T18:16:28.066Z,52.17
2022-09-03T18:19:04.131Z,51.79
2022-09-03T18:21:37.600Z,52.25
2022-09-03T18:24:33.258Z,52.72
2022-09-03T18:27:05.582Z,52.91
2022-09-03T18:29:53.684Z,53.23
2022-09-03T18:32:21.184Z,52.25
2022-09-03T18:34:47.970Z,52.97
2022-09-03T18:37:22.223Z,53.28
2022-09-03T18:39:48.967Z,53.74
2022-09-03T18:42:19.441Z,53.65
2022-09-03T18:45:24.338Z,53.65
2022-09-03T18:48:20.704Z,53.96
2022-09-03T18:51:05.078Z,54.00
2022-09-03T18:53:50.258Z,54.95
2022-09-03T18:56:27.234Z,55.07
2022-09-03T18:59:04.422Z,54.57
2022-09-03T19:01:35.911Z,55.64
2022-09-03T19:04:08.005Z,56.26
2022-09-03T19:07:05.593Z,55.35
2022-09-03T19:09:54.169Z,55.82
2022-09-03T19:13:12.898Z,55.97
2022-09-03T19:16:02.759Z,56.92
2022-09-03T19:18:29.396Z,56.44
2022-09-03T19:21:32.925Z,56.42
2022-09-03T19:24:01.514Z,55.46
2022-09-03T19:26:44.248Z,55.94
2022-09-03T19:29:39.393Z,56.96
2022-09-03T19:32:15.379Z,56.65
2022-09-03T19:34:56.588Z,56.93
2022-09-03T19:38:00.432Z,57.71
2022-09-03T19:40:33.251Z,58.60
2022-09-03T19:43:05.851Z,58.61
2022-09-03T19:45:55.658Z,58.43
2022-09-03T19:48:50.078Z,58.00
2022-09-03T19:51:35.075Z,58.28
2022-09-03T19:54:04.809Z,59.78
2022-09-03T19:56:31.462Z,59.40
2022-09-03T19:59:10.595Z,59.36
2022-09-03T20:01:38.113Z,59.52
2022-09-03T20:04:13.766Z,60.11
2022-09-03T20:06:40.759Z,59.63
2022-09-03T20:09:09.754Z,59.48
2022-09-03T20:11:39.480Z,59.85
2022-09-03T20:14:14.545Z,59.52
2022-09-03T20:16:53.311Z,60.18
2022-09-03T20:19:55.125Z,60.34
2022-09-03T20:22:21.903Z,60.11
2022-09-03T20:25:12.440Z,60.60
2022-09-03T20:27:47.957Z,61.37
2022-09-03T20:30:23.185Z,61.89
2022-09-03T20:32:53.453Z,62.10
2022-09-03T20:35:37.458Z,62.17
2022-09-03T20:38:21.585Z,61.37
2022-09-03T20:41:09.428Z,62.23
2022-09-03T20:43:58.612Z,62.70
2022-09-03T20:46:27.898Z,63.32
2022-09-03T20:49:03.726Z,62.91
2022-09-03T20:51:44.404Z,63.06
2022-09-03T20:54:32.151Z,64.08
2022-09-03T20:57:23.698Z,63.95
2022-09-03T21:00:05.795Z,64.44
2022-09-03T21:03:04.805Z,63.95
2022-09-03T21:05:35.448Z,63.93
2022-09-03T21:08:35.851Z,64.22
2022-09-03T21:11:11.268Z,65.66
2022-09-03T21:14:00.196Z,64.34
2022-09-03T21:16:44.775Z,65.02
2022-09-03T21:19:27.425Z,64.48
2022-09-03T21:22:03.274Z,64.77
2022-09-03T21:24:51.834Z,64.91
2022-09-03T21:27:30.312Z,66.01
2022-09-03T21:30:09.728Z,66.39
2022-09-03T21:32:53.314Z,66.59
2022-09-03T21:35:26.552Z,67.32
2022-09-03T21:38:22.902Z,67.25
2022-09-03T21:41:00.317Z,65.69
2022-09-03T21:43:46.234Z,65.45
2022-09-03T21:46:16.176Z,66.93
2022-09-03T21:48:56.625Z,65.99
2022-09-03T21:51:28.434Z,67.54
2022-09-03T21:53:59.950Z,66.86
2022-09-03T21:56:47.654Z,68.03
2022-09-03T21:59:49.763Z,67.71
2022-09-03T22:02:34.491Z,67.96
2022-09-03T22:05:02.463Z,68.85
2022-09-03T22:07:50.705Z,69.41
2022-09-03T22:10:48.140Z,70.21
2022-09-03T22:13:50.004Z,70.19
2022-09-03T22:16:26.507Z,70.28
2022-09-03T22:18:54.735Z,70.06
2022-09-03T22:21:46.416Z,70.13
2022-09-03T22:24:34.408Z,70.15
2022-09-03T22:27:21.224Z,70.28
2022-09-03T22:29:59.950Z,69.44
2022-09-03T22:32:35.347Z,69.85
2022-09-03T22:35:24.014Z,71.10
2022-09-03T22:37:56.547Z,70.69
2022-09-03T22:40:32.774Z,71.05
2022-09-03T22:43:24.154Z,69.72
2022-09-03T22:46:10.561Z,69.77
2022-09-03T22:49:03.716Z,70.63
2022-09-03T22:51:47.522Z,70.96
2022-09-03T22:54:34.132Z,70.27
2022-09-03T22:57:03.121Z,70.57
2022-09-03T23:00:01.394Z,70.46
2022-09-03T23:02:30.332Z,70.49
2022-09-03T23:05:21.318Z,71.65
2022-09-03T23:07:52.667Z,73.02
2022-09-03T23:10:35.825Z,72.08
2022-09-03T23:13:18.655Z,72.40
2022-09-03T23:16:00.352Z,72.99
2022-09-03T23:18:30.799Z,73.14
2022-09-03T23:21:16.022Z,72.63
2022-09-03T23:23:47.676Z,73.34
2022-09-03T23:26:27.205Z,72.22
2022-09-03T23:29:11.999Z,71.67
2022-09-03T23:31:38.782Z,72.22
2022-09-03T23:34:08.755Z,71.91
2022-09-03T23:37:22.537Z,73.37
2022-09-03T23:40:12.976Z,72.14
2022-09-03T23:42:57.610Z,72.53
2022-09-03T23:45:33.396Z,72.24
2022-09-03T23:48:34.947Z,73.60
2022-09-03T23:51:38.177Z,72.08
2022-09-03T23:54:18.991Z,73.64
2022-09-03T23:57:10.447Z,74.02
2022-09-03T23:59:39.911Z,74.31
